Aérodrome :
LOGIN :

S'inscrire | Disclaimer

   EN    FR    IT 

 










Légende :    VFR   VFR Marginal   IFR   IFR Intensif   IFR Très Intensif
Visi : 
Plafond : 
>= 8 km
>= 3000ft
5 à 8 km
1000 à 3000 ft
1500m à 5 km
500 à 1000 ft
800 à 1500m
200 à 500 ft
< 800m
< 200 ft
Symboles :   Orages  Brouillard  Fortes neiges  Fortes précipitations  Vent > 20 kt
SIGMETs :   Divers  Orages  Givrage  Turbulence  Onde Orograph.  Cendres Volcan.







- Altitude de l'aérodrome : 284 ft


EGUW - RAF Wattisham

DERNIER METAR :
  • 271250Z AUTO 20016KT 9999 FEW024/// 24/17 Q1013

METARs EXPIRÉS :
  • 271150Z AUTO 19011KT 9999 NCD 23/17 Q1013
  • 271050Z AUTO 14010KT 9999 FEW100/// 20/18 Q1013 RERA

Prévision TAF périmée.
Pas de NOTAMs connus pour ce terrain.
4 SIGMETs publiés pour la FIR London (EGTT) :
 
Orages fréquents
EGTT SIGMET 14 VALID 271311/271530 EGRR
EGTT LONDON FIR FRQ TS OBS WI N5312 W00004 - N5306 W00039 - N5313 W00205 - N5337 W00300 - N5438 W00309 - N5312 W00004 TOP FL330 MOV N 25KT INTSF=
Annulation du SIGMET 12
EGTT SIGMET 13 VALID 271310/271530 EGRR
EGTT LONDON FIR CNL SIGMET 12 271230/271530=
SIGMET 12  ANNULÉ :
Orages fréquents
EGTT SIGMET 12 VALID 271230/271530 EGRR
EGTT LONDON FIR FRQ TS OBS WI N5349 W00125 - N5245 W00001 - N5236 W00135 - N5331 W00301 - N5349 W00125 TOP FL330 MOV N 25KT INTSF=
Orages noyés dans la masse
EGTT SIGMET 11 VALID 271200/271500 EGRR
EGTT LONDON FIR EMBD TS OBS WI N5449 W00108 - N5314 E00138 - N5252 E00103 - N5428 W00142 - N5449 W00108 TOP FL350 MOV NNE 25KT WKN=



MET'MAP, la Météo Aéronautique d'un coup d'oeil ! - Copyright ORBIFLY Décembre 2007 - Disclaimer

ORBIFLY MET'MAP TEAM :

Programmation & Développement : Alexandra Zaïnal
Conception & Développement : Baudouin d'Aumeries
Co-Programmation & Développement : Marc-Olivier Méhu
Soutien technique & logistique : Manuel Goepfert

Contact : metmap@orbifly.com




SOURCES & CREDITS :

   NOAA